createdAt,value
2024-04-10T00:02:29.001Z,100335.71
2024-04-10T00:05:00.718Z,100345.80
2024-04-10T00:07:32.298Z,100346.18
2024-04-10T00:10:03.985Z,100353.60
2024-04-10T00:12:35.280Z,100360.95
2024-04-10T00:15:07.345Z,100373.60
2024-04-10T00:17:38.796Z,100374.68
2024-04-10T00:20:11.359Z,100389.95
2024-04-10T00:22:44.939Z,100395.89
2024-04-10T00:25:17.309Z,100404.60
2024-04-10T00:27:48.841Z,100406.05
2024-04-10T00:30:20.507Z,100412.13
2024-04-10T00:32:52.232Z,100413.92
2024-04-10T00:35:24.050Z,100425.92
2024-04-10T00:37:56.232Z,100423.82
2024-04-10T00:40:27.875Z,100429.57
2024-04-10T00:43:05.351Z,100432.84
2024-04-10T00:45:42.646Z,100441.19
2024-04-10T00:48:16.075Z,100452.52
2024-04-10T00:50:48.631Z,100461.53
2024-04-10T00:53:20.881Z,100468.73
2024-04-10T00:55:52.483Z,100476.55
2024-04-10T00:58:24.371Z,100488.27
2024-04-10T01:00:56.257Z,100489.11
2024-04-10T01:03:28.423Z,100498.46
2024-04-10T01:06:00.237Z,100507.55
2024-04-10T01:08:33.470Z,100516.43
2024-04-10T01:11:06.614Z,100522.08
2024-04-10T01:13:38.765Z,100529.54
2024-04-10T01:16:10.577Z,100535.58
2024-04-10T01:18:42.393Z,100536.68
2024-04-10T01:21:15.168Z,100536.32
2024-04-10T01:23:46.754Z,100540.63
2024-04-10T01:26:18.262Z,100545.41
2024-04-10T01:28:49.892Z,100547.90
2024-04-10T01:31:21.578Z,100549.73
2024-04-10T01:33:53.159Z,100561.99
2024-04-10T01:36:25.028Z,100556.94
2024-04-10T01:38:56.397Z,100560.45
2024-04-10T01:41:28.490Z,100568.37
2024-04-10T01:44:00.280Z,100575.96
2024-04-10T01:46:31.891Z,100578.20
2024-04-10T01:49:05.385Z,100581.61
2024-04-10T01:51:36.860Z,100583.80
2024-04-10T01:54:09.982Z,100586.80
2024-04-10T01:56:41.705Z,100592.09
2024-04-10T01:59:13.280Z,100588.94
2024-04-10T02:01:46.404Z,100588.81
2024-04-10T02:04:18.869Z,100598.06
2024-04-10T02:06:50.293Z,100597.96
2024-04-10T02:09:21.746Z,100605.60
2024-04-10T02:11:53.738Z,100609.70
2024-04-10T02:14:25.364Z,100621.32
2024-04-10T02:16:57.094Z,100633.52
2024-04-10T02:19:28.569Z,100636.58
2024-04-10T02:21:59.833Z,100641.82
2024-04-10T02:24:31.136Z,100647.80
2024-04-10T02:27:02.367Z,100646.76
2024-04-10T02:29:33.605Z,100648.71
2024-04-10T02:32:05.660Z,100648.08
2024-04-10T02:34:38.028Z,100650.11
2024-04-10T02:37:10.093Z,100657.21
2024-04-10T02:39:41.346Z,100664.15
2024-04-10T02:42:12.677Z,100667.59
2024-04-10T02:44:45.748Z,100674.07
2024-04-10T02:47:16.976Z,100670.46
2024-04-10T02:49:48.474Z,100678.39
2024-04-10T02:52:19.779Z,100682.92
2024-04-10T02:54:50.963Z,100685.86
2024-04-10T02:57:22.358Z,100689.75
2024-04-10T02:59:53.732Z,100695.67
2024-04-10T03:02:24.969Z,100699.95
2024-04-10T03:04:56.178Z,100699.36
2024-04-10T03:07:27.451Z,100697.60
2024-04-10T03:09:59.002Z,100694.90
2024-04-10T03:12:30.243Z,100701.58
2024-04-10T03:15:01.756Z,100706.17
2024-04-10T03:17:33.271Z,100715.73
2024-04-10T03:20:04.790Z,100720.49
2024-04-10T03:22:36.513Z,100723.36
2024-04-10T03:25:08.679Z,100732.68
2024-04-10T03:27:39.886Z,100734.72
2024-04-10T03:30:12.489Z,100744.41
2024-04-10T03:32:43.231Z,100739.01
2024-04-10T03:35:14.502Z,100743.88
2024-04-10T03:37:46.037Z,100744.09
2024-04-10T03:40:17.573Z,100745.41
2024-04-10T03:42:49.599Z,100749.35
2024-04-10T03:45:21.036Z,100749.77
2024-04-10T03:47:55.304Z,100752.33
2024-04-10T03:50:26.681Z,100762.66
2024-04-10T03:53:03.006Z,100762.70
2024-04-10T03:55:34.989Z,100768.41
2024-04-10T03:58:06.935Z,100777.12
2024-04-10T04:00:38.287Z,100772.39
2024-04-10T04:03:09.835Z,100774.46
2024-04-10T04:05:42.787Z,100779.02
2024-04-10T04:08:14.249Z,100778.32
2024-04-10T04:10:46.930Z,100784.17
2024-04-10T04:13:18.218Z,100783.30
2024-04-10T04:15:49.700Z,100780.64
2024-04-10T04:18:21.220Z,100780.95
2024-04-10T04:20:52.492Z,100789.97
2024-04-10T04:23:23.840Z,100796.08
2024-04-10T04:25:55.658Z,100801.45
2024-04-10T04:28:27.155Z,100811.58
2024-04-10T04:30:58.583Z,100824.08
2024-04-10T04:33:32.065Z,100826.48
2024-04-10T04:36:03.704Z,100840.16
2024-04-10T04:38:37.552Z,100848.81
2024-04-10T04:41:09.004Z,100869.41
2024-04-10T04:43:40.833Z,100879.35
2024-04-10T04:46:18.153Z,100886.70
2024-04-10T04:48:49.657Z,100892.91
2024-04-10T04:51:20.911Z,100902.36
2024-04-10T04:53:52.174Z,100908.58
2024-04-10T04:56:23.442Z,100915.34
2024-04-10T04:58:54.864Z,100924.27
2024-04-10T05:01:26.166Z,100927.83
2024-04-10T05:04:15.420Z,100936.34
2024-04-10T05:06:46.614Z,100944.17
2024-04-10T05:09:17.900Z,100955.13
2024-04-10T05:11:49.276Z,100961.52
2024-04-10T05:14:20.602Z,100966.80
2024-04-10T05:16:51.920Z,100965.59
2024-04-10T05:19:23.275Z,100972.55
2024-04-10T05:21:55.134Z,100977.73
2024-04-10T05:24:26.374Z,100981.73
2024-04-10T05:26:57.532Z,100987.77
2024-04-10T05:29:28.989Z,100991.44
2024-04-10T05:32:01.092Z,101000.08
2024-04-10T05:34:32.494Z,100994.51
2024-04-10T05:37:03.703Z,101000.44
2024-04-10T05:39:35.250Z,101007.46
2024-04-10T05:42:08.056Z,101011.63
2024-04-10T05:44:39.470Z,101017.02
2024-04-10T05:47:10.852Z,101026.92
2024-04-10T05:49:42.180Z,101007.17
2024-04-10T05:52:14.116Z,101028.66
2024-04-10T05:54:49.489Z,101030.63
2024-04-10T05:57:22.199Z,101034.91
2024-04-10T05:59:55.564Z,101035.59
2024-04-10T06:02:29.400Z,101036.73
2024-04-10T06:05:01.556Z,101038.79
2024-04-10T06:07:34.836Z,101037.58
2024-04-10T06:10:07.011Z,101040.72
2024-04-10T06:12:38.364Z,101041.88
2024-04-10T06:15:10.161Z,101046.73
2024-04-10T06:17:41.649Z,101048.44
2024-04-10T06:20:13.240Z,101052.69
2024-04-10T06:22:44.543Z,101058.14
2024-04-10T06:25:15.926Z,101058.64
2024-04-10T06:27:47.245Z,101063.70
2024-04-10T06:30:18.892Z,101068.36
2024-04-10T06:32:50.390Z,101071.11
2024-04-10T06:35:22.491Z,101070.55
2024-04-10T06:37:53.698Z,101082.48
2024-04-10T06:40:26.653Z,101087.28
2024-04-10T06:42:58.067Z,101091.21
2024-04-10T06:45:29.332Z,101092.10
2024-04-10T06:48:00.627Z,101091.06
2024-04-10T06:50:32.155Z,101089.73
2024-04-10T06:53:06.821Z,101093.45
2024-04-10T06:55:38.094Z,101100.55
2024-04-10T06:58:09.324Z,101105.19
2024-04-10T07:00:40.911Z,101100.73
2024-04-10T07:03:12.255Z,101108.50
2024-04-10T07:05:48.186Z,101108.79
2024-04-10T07:08:19.560Z,101118.18
2024-04-10T07:10:57.229Z,101122.52
2024-04-10T07:13:28.559Z,101124.70
2024-04-10T07:16:04.905Z,101124.42
2024-04-10T07:18:38.296Z,101121.41
2024-04-10T07:21:13.496Z,101116.20
2024-04-10T07:23:46.584Z,101111.85
2024-04-10T07:26:21.160Z,101117.13
2024-04-10T07:28:54.002Z,101125.22
2024-04-10T07:31:29.647Z,101125.77
2024-04-10T07:34:02.453Z,101133.55
2024-04-10T07:36:38.312Z,101131.27
2024-04-10T07:39:12.592Z,101127.35
2024-04-10T07:41:44.603Z,101131.73
2024-04-10T07:44:18.206Z,101141.55
2024-04-10T07:46:50.068Z,101143.36
2024-04-10T07:49:21.955Z,101147.29
2024-04-10T07:51:53.215Z,101153.03
2024-04-10T07:54:24.585Z,101162.30
2024-04-10T07:56:56.246Z,101170.45
2024-04-10T07:59:27.579Z,101168.09
2024-04-10T08:01:58.925Z,101175.60
2024-04-10T08:04:30.355Z,101175.42
2024-04-10T08:07:01.657Z,101170.12
2024-04-10T08:09:34.323Z,101174.39
2024-04-10T08:12:08.023Z,101175.95
2024-04-10T08:14:39.654Z,101175.89
2024-04-10T08:17:11.465Z,101181.34
2024-04-10T08:19:43.190Z,101186.23
2024-04-10T08:22:14.849Z,101189.08
2024-04-10T08:24:46.155Z,101192.73
2024-04-10T08:27:20.727Z,101199.47
2024-04-10T08:29:52.008Z,101205.66
2024-04-10T08:32:23.441Z,101205.95
2024-04-10T08:34:55.049Z,101205.58
2024-04-10T08:37:26.923Z,101208.80
2024-04-10T08:39:58.600Z,101211.14
2024-04-10T08:42:32.091Z,101212.54
2024-04-10T08:45:04.497Z,101219.86
2024-04-10T08:47:36.467Z,101226.64
2024-04-10T08:50:09.133Z,101228.20
2024-04-10T08:52:42.449Z,101228.29
2024-04-10T08:55:14.290Z,101229.15
2024-04-10T08:57:45.852Z,101231.55
2024-04-10T09:00:17.478Z,101231.14
2024-04-10T09:02:49.168Z,101239.51
2024-04-10T09:05:30.646Z,101242.77
2024-04-10T09:08:02.321Z,101247.68
2024-04-10T09:10:34.007Z,101254.27
2024-04-10T09:13:07.594Z,101252.07
2024-04-10T09:15:39.486Z,101251.90
2024-04-10T09:18:15.773Z,101259.02
2024-04-10T09:20:47.390Z,101258.19
2024-04-10T09:23:19.614Z,101260.27
2024-04-10T09:25:50.997Z,101266.13
2024-04-10T09:28:24.955Z,101266.30
2024-04-10T09:31:00.643Z,101271.23
2024-04-10T09:33:35.944Z,101278.94
2024-04-10T09:36:10.357Z,101276.08
2024-04-10T09:38:42.001Z,101275.32
2024-04-10T09:41:18.217Z,101279.69
2024-04-10T09:43:54.180Z,101277.08
2024-04-10T09:46:32.446Z,101287.05
2024-04-10T09:49:10.141Z,101291.73
2024-04-10T09:51:43.112Z,101295.40
2024-04-10T09:54:15.179Z,101307.48
2024-04-10T09:56:47.067Z,101316.71
2024-04-10T09:59:20.951Z,101312.89
2024-04-10T10:01:55.604Z,101306.55
2024-04-10T10:04:37.352Z,101309.48
2024-04-10T10:07:09.546Z,101307.45
2024-04-10T10:09:40.871Z,101305.02
2024-04-10T10:12:12.390Z,101303.27
2024-04-10T10:14:43.702Z,101305.50
2024-04-10T10:17:15.042Z,101300.69
2024-04-10T10:19:46.562Z,101301.27
2024-04-10T10:22:19.141Z,101308.38
2024-04-10T10:25:00.291Z,101310.75
2024-04-10T10:27:33.797Z,101313.38
2024-04-10T10:30:11.215Z,101314.45
2024-04-10T10:32:42.750Z,101316.80
2024-04-10T10:35:15.895Z,101319.92
2024-04-10T10:37:48.659Z,101318.31
2024-04-10T10:40:20.402Z,101317.21
2024-04-10T10:43:03.602Z,101325.20
2024-04-10T10:45:36.529Z,101325.71
2024-04-10T10:48:16.447Z,101329.86
2024-04-10T10:50:56.819Z,101333.18
2024-04-10T10:53:29.672Z,101340.11
2024-04-10T10:56:00.975Z,101347.74
2024-04-10T10:58:32.197Z,101353.04
2024-04-10T11:01:10.109Z,101364.75
2024-04-10T11:03:41.506Z,101358.77
2024-04-10T11:06:14.918Z,101352.20
2024-04-10T11:08:46.559Z,101353.48
2024-04-10T11:11:18.224Z,101356.61
2024-04-10T11:13:53.168Z,101359.98
2024-04-10T11:16:29.355Z,101359.86
2024-04-10T11:19:01.488Z,101367.71
2024-04-10T11:21:32.828Z,101373.40
2024-04-10T11:24:04.418Z,101373.27
2024-04-10T11:26:36.193Z,101373.20
2024-04-10T11:29:10.151Z,101365.77
2024-04-10T11:31:43.142Z,101360.10
2024-04-10T11:34:15.035Z,101361.95
2024-04-10T11:36:46.377Z,101369.16
2024-04-10T11:39:20.295Z,101372.23
2024-04-10T11:41:51.720Z,101374.00
2024-04-10T11:44:26.931Z,101374.29
2024-04-10T11:46:58.341Z,101378.52
2024-04-10T11:49:29.624Z,101375.33
2024-04-10T11:52:00.872Z,101379.46
2024-04-10T11:54:32.157Z,101389.19
2024-04-10T11:57:06.123Z,101395.48
2024-04-10T11:59:37.629Z,101403.51
2024-04-10T12:02:09.563Z,101411.48
2024-04-10T12:04:41.277Z,101413.10
2024-04-10T12:07:13.016Z,101407.22
2024-04-10T12:09:44.307Z,101408.26
2024-04-10T12:12:15.795Z,101407.60
2024-04-10T12:14:47.605Z,101393.84
2024-04-10T12:17:19.127Z,101392.00
2024-04-10T12:19:50.779Z,101400.36
2024-04-10T12:22:22.135Z,101394.61
2024-04-10T12:24:53.491Z,101396.55
2024-04-10T12:27:25.407Z,101400.96
2024-04-10T12:29:56.757Z,101403.89
2024-04-10T12:32:28.324Z,101403.54
2024-04-10T12:35:20.317Z,101404.48
2024-04-10T12:38:10.051Z,101409.16
2024-04-10T12:40:42.579Z,101418.65
2024-04-10T12:43:13.913Z,101430.39
2024-04-10T12:45:45.365Z,101437.33
2024-04-10T12:48:16.935Z,101443.55
2024-04-10T12:50:54.645Z,101443.85
2024-04-10T12:53:26.188Z,101442.40
2024-04-10T12:55:57.971Z,101446.39
2024-04-10T12:58:29.240Z,101439.49
2024-04-10T13:01:01.995Z,101451.44
2024-04-10T13:03:36.621Z,101446.46
2024-04-10T13:06:08.740Z,101448.08
2024-04-10T13:08:40.165Z,101443.31
2024-04-10T13:11:15.611Z,101448.25
2024-04-10T13:13:47.340Z,101443.68
2024-04-10T13:16:18.602Z,101448.71
2024-04-10T13:18:51.192Z,101443.80
2024-04-10T13:21:21.234Z,101450.95
2024-04-10T13:23:53.793Z,101451.17
2024-04-10T13:26:25.903Z,101448.41
2024-04-10T13:28:57.197Z,101448.25
2024-04-10T13:31:28.443Z,101453.40
2024-04-10T13:34:00.427Z,101460.01
2024-04-10T13:36:32.366Z,101456.95
2024-04-10T13:39:04.542Z,101459.77
2024-04-10T13:41:36.417Z,101464.50
2024-04-10T13:44:07.855Z,101463.63
2024-04-10T13:46:41.639Z,101467.81
2024-04-10T13:49:15.005Z,101468.64
2024-04-10T13:51:46.252Z,101473.19
2024-04-10T13:54:17.981Z,101484.01
2024-04-10T13:56:49.272Z,101474.96
2024-04-10T13:59:20.616Z,101478.43
2024-04-10T14:01:53.382Z,101481.34
2024-04-10T14:04:23.357Z,101478.25
2024-04-10T14:06:54.793Z,101479.90
2024-04-10T14:09:26.106Z,101477.63
2024-04-10T14:11:57.608Z,101482.43
2024-04-10T14:14:28.994Z,101483.39
2024-04-10T14:17:08.048Z,101487.82
2024-04-10T14:19:50.111Z,101487.75
2024-04-10T14:22:21.427Z,101494.26
2024-04-10T14:24:53.412Z,101503.64
2024-04-10T14:27:24.635Z,101507.52
2024-04-10T14:29:56.464Z,101506.05
2024-04-10T14:32:27.892Z,101512.77
2024-04-10T14:35:05.498Z,101511.88
2024-04-10T14:37:37.714Z,101518.98
2024-04-10T14:40:11.330Z,101521.23
2024-04-10T14:42:44.374Z,101520.20
2024-04-10T14:45:17.797Z,101527.14
2024-04-10T14:47:49.131Z,101535.64
2024-04-10T14:50:20.544Z,101534.16
2024-04-10T14:52:51.806Z,101536.35
2024-04-10T14:55:23.611Z,101535.96
2024-04-10T14:57:55.007Z,101542.20
2024-04-10T15:00:26.620Z,101537.19
2024-04-10T15:02:58.692Z,101535.79
2024-04-10T15:05:30.331Z,101542.02
2024-04-10T15:08:01.603Z,101542.54
2024-04-10T15:10:42.862Z,101548.79
2024-04-10T15:13:14.315Z,101550.60
2024-04-10T15:15:45.686Z,101546.30
2024-04-10T15:18:18.395Z,101551.83
2024-04-10T15:20:51.234Z,101548.84
2024-04-10T15:23:22.940Z,101551.13
2024-04-10T15:25:55.604Z,101556.95
2024-04-10T15:28:28.413Z,101560.66
2024-04-10T15:31:02.307Z,101562.14
2024-04-10T15:33:34.813Z,101562.74
2024-04-10T15:36:05.815Z,101561.88
2024-04-10T15:38:38.840Z,101568.50
2024-04-10T15:41:11.939Z,101575.33
2024-04-10T15:43:44.002Z,101577.29
2024-04-10T15:46:15.932Z,101581.81
2024-04-10T15:48:48.707Z,101590.98
2024-04-10T15:51:20.700Z,101593.58
2024-04-10T15:53:53.513Z,101597.42
2024-04-10T15:56:24.918Z,101603.98
2024-04-10T15:58:56.370Z,101604.33
2024-04-10T16:01:27.770Z,101612.28
2024-04-10T16:03:59.306Z,101612.52
2024-04-10T16:06:30.720Z,101621.40
2024-04-10T16:09:02.198Z,101617.96
2024-04-10T16:11:40.479Z,101625.26
2024-04-10T16:14:11.871Z,101623.39
2024-04-10T16:16:43.404Z,101626.73
2024-04-10T16:19:16.341Z,101632.20
2024-04-10T16:21:47.629Z,101635.04
2024-04-10T16:24:18.854Z,101637.23
2024-04-10T16:26:50.135Z,101636.09
2024-04-10T16:29:21.582Z,101640.32
2024-04-10T16:31:53.536Z,101643.27
2024-04-10T16:34:25.143Z,101643.92
2024-04-10T16:36:56.474Z,101645.87
2024-04-10T16:39:27.655Z,101647.48
2024-04-10T16:41:58.939Z,101652.33
2024-04-10T16:44:30.328Z,101655.73
2024-04-10T16:47:03.708Z,101652.60
2024-04-10T16:49:34.927Z,101660.26
2024-04-10T16:52:07.243Z,101660.24
2024-04-10T16:54:38.447Z,101663.45
2024-04-10T16:57:09.740Z,101666.91
2024-04-10T16:59:41.117Z,101674.13
2024-04-10T17:02:12.936Z,101678.72
2024-04-10T17:04:44.362Z,101679.80
2024-04-10T17:07:16.359Z,101683.23
2024-04-10T17:09:47.617Z,101683.95
2024-04-10T17:12:18.953Z,101685.44
2024-04-10T17:14:53.404Z,101692.73
2024-04-10T17:17:41.184Z,101697.41
2024-04-10T17:20:30.311Z,101704.89
2024-04-10T17:23:01.670Z,101716.44
2024-04-10T17:25:32.862Z,101720.14
2024-04-10T17:28:04.167Z,101728.55
2024-04-10T17:30:35.750Z,101729.63
2024-04-10T17:33:09.246Z,101727.19
2024-04-10T17:35:40.552Z,101734.21
2024-04-10T17:38:11.983Z,101742.21
2024-04-10T17:40:44.113Z,101743.77
2024-04-10T17:43:15.307Z,101746.73
2024-04-10T17:45:46.547Z,101753.64
2024-04-10T17:48:17.963Z,101757.77
2024-04-10T17:50:50.094Z,101765.78
2024-04-10T17:53:22.392Z,101770.30
2024-04-10T17:55:53.882Z,101776.06
2024-04-10T17:58:25.620Z,101779.38
2024-04-10T18:01:05.354Z,101784.65
2024-04-10T18:03:38.042Z,101792.97
2024-04-10T18:06:12.192Z,101795.75
2024-04-10T18:08:43.790Z,101798.45
2024-04-10T18:11:15.412Z,101797.20
2024-04-10T18:13:46.684Z,101797.16
2024-04-10T18:16:17.835Z,101802.66
2024-04-10T18:18:53.140Z,101806.65
2024-04-10T18:21:24.583Z,101808.42
2024-04-10T18:23:56.107Z,101809.84
2024-04-10T18:26:27.627Z,101809.09
2024-04-10T18:29:01.782Z,101809.81
2024-04-10T18:31:32.989Z,101811.72
2024-04-10T18:34:04.801Z,101816.01
2024-04-10T18:36:36.217Z,101818.52
2024-04-10T18:39:08.746Z,101820.67
2024-04-10T18:41:40.908Z,101823.86
2024-04-10T18:44:13.094Z,101829.61
2024-04-10T18:46:44.553Z,101829.02
2024-04-10T18:49:16.196Z,101833.73
2024-04-10T18:51:48.664Z,101835.89
2024-04-10T18:54:19.867Z,101841.07
2024-04-10T18:56:51.194Z,101844.87
2024-04-10T18:59:22.712Z,101846.76
2024-04-10T19:01:55.128Z,101847.04
2024-04-10T19:04:26.350Z,101851.46
2024-04-10T19:06:59.845Z,101852.18
2024-04-10T19:09:32.597Z,101858.52
2024-04-10T19:12:07.261Z,101857.35
2024-04-10T19:14:43.594Z,101860.42
2024-04-10T19:17:22.099Z,101858.73
2024-04-10T19:19:56.837Z,101864.64
2024-04-10T19:22:29.365Z,101864.96
2024-04-10T19:25:00.684Z,101872.09
2024-04-10T19:27:34.011Z,101870.96
2024-04-10T19:30:10.012Z,101868.98
2024-04-10T19:32:41.744Z,101872.50
2024-04-10T19:35:13.303Z,101870.04
2024-04-10T19:37:45.060Z,101867.08
2024-04-10T19:40:20.944Z,101869.25
2024-04-10T19:42:52.247Z,101874.62
2024-04-10T19:45:23.557Z,101877.05
2024-04-10T19:47:55.084Z,101878.98
2024-04-10T19:50:26.882Z,101880.94
2024-04-10T19:53:00.050Z,101883.42
2024-04-10T19:55:46.312Z,101890.84
2024-04-10T19:58:21.433Z,101888.73
2024-04-10T20:01:01.513Z,101892.66
2024-04-10T20:03:33.306Z,101897.04
2024-04-10T20:06:06.717Z,101900.85
2024-04-10T20:08:39.514Z,101901.25
2024-04-10T20:11:09.783Z,101903.02
2024-04-10T20:13:42.446Z,101907.73
2024-04-10T20:16:15.490Z,101912.70
2024-04-10T20:18:47.046Z,101910.20
2024-04-10T20:21:19.909Z,101914.02
2024-04-10T20:23:51.302Z,101915.68
2024-04-10T20:26:22.616Z,101919.23
2024-04-10T20:28:53.919Z,101920.38
2024-04-10T20:31:25.672Z,101918.31
2024-04-10T20:33:58.438Z,101921.36
2024-04-10T20:36:30.739Z,101922.52
2024-04-10T20:39:02.304Z,101922.88
2024-04-10T20:41:33.723Z,101929.47
2024-04-10T20:44:05.398Z,101931.30
2024-04-10T20:46:36.729Z,101940.13
2024-04-10T20:49:08.431Z,101942.91
2024-04-10T20:51:39.896Z,101945.11
2024-04-10T20:54:11.592Z,101947.84
2024-04-10T20:56:43.171Z,101946.58
2024-04-10T20:59:14.664Z,101948.06
2024-04-10T21:01:47.508Z,101949.31
2024-04-10T21:04:20.707Z,101947.27
2024-04-10T21:07:12.332Z,101952.55
2024-04-10T21:10:01.523Z,101953.47
2024-04-10T21:12:50.638Z,101949.80
2024-04-10T21:15:39.667Z,101957.10
2024-04-10T21:18:28.912Z,101960.96
2024-04-10T21:21:21.003Z,101966.42
2024-04-10T21:24:09.912Z,101979.36
2024-04-10T21:26:59.110Z,101980.30
2024-04-10T21:29:49.465Z,101971.27
2024-04-10T21:32:38.637Z,101976.94
2024-04-10T21:35:27.935Z,101983.45
2024-04-10T21:38:17.343Z,101988.56
2024-04-10T21:41:06.398Z,101988.68
2024-04-10T21:43:55.245Z,101989.98
2024-04-10T21:46:44.582Z,101994.88
2024-04-10T21:49:34.267Z,101999.61
2024-04-10T21:52:24.235Z,101998.04
2024-04-10T21:55:13.568Z,102002.33
2024-04-10T21:58:02.587Z,102002.53
2024-04-10T22:00:53.526Z,102002.36
2024-04-10T22:03:44.224Z,101999.67
2024-04-10T22:06:33.675Z,101996.79
2024-04-10T22:09:16.754Z,101998.96
2024-04-10T22:11:49.963Z,101999.77
2024-04-10T22:14:21.799Z,102004.14
2024-04-10T22:17:11.103Z,102004.69
2024-04-10T22:20:02.142Z,101994.88
2024-04-10T22:22:51.290Z,101999.61
2024-04-10T22:25:22.520Z,102002.91
2024-04-10T22:27:53.872Z,102009.08
2024-04-10T22:30:25.722Z,102009.48
2024-04-10T22:32:57.069Z,102019.29
2024-04-10T22:35:28.602Z,102018.20
2024-04-10T22:37:59.865Z,102006.46
2024-04-10T22:40:32.129Z,102025.47
2024-04-10T22:43:03.978Z,102028.54
2024-04-10T22:45:35.241Z,102034.33
2024-04-10T22:48:07.836Z,102033.08
2024-04-10T22:50:39.525Z,102031.98
2024-04-10T22:53:11.421Z,102034.89
2024-04-10T22:55:42.678Z,102035.44
2024-04-10T22:58:14.044Z,102037.45
2024-04-10T23:00:45.462Z,102030.55
2024-04-10T23:03:16.917Z,102036.34
2024-04-10T23:05:55.481Z,102033.09
2024-04-10T23:08:32.677Z,102037.45
2024-04-10T23:11:05.074Z,102038.52
2024-04-10T23:13:36.602Z,102040.87
2024-04-10T23:16:08.400Z,102046.13
2024-04-10T23:18:54.148Z,102045.40
2024-04-10T23:21:31.604Z,102045.41
2024-04-10T23:24:02.946Z,102042.88
2024-04-10T23:26:36.004Z,102042.33
2024-04-10T23:29:07.348Z,102039.99
2024-04-10T23:31:39.226Z,102039.97
2024-04-10T23:34:10.918Z,102041.23
2024-04-10T23:36:42.617Z,102044.48
2024-04-10T23:39:14.440Z,102044.85
2024-04-10T23:41:46.421Z,102044.29
2024-04-10T23:44:19.311Z,102042.84
2024-04-10T23:46:50.552Z,102041.71
2024-04-10T23:49:21.973Z,102042.65
2024-04-10T23:51:53.504Z,102041.58
2024-04-10T23:54:24.742Z,102043.58
2024-04-10T23:56:55.995Z,102043.58
2024-04-10T23:59:27.434Z,102045.92
